Aérodrome :
LOGIN :

S'inscrire | Disclaimer

   EN    FR    IT 

 










Légende :    VFR   VFR Marginal   IFR   IFR Intensif   IFR Très Intensif
Visi : 
Plafond : 
>= 8 km
>= 3000ft
5 à 8 km
1000 à 3000 ft
1500m à 5 km
500 à 1000 ft
800 à 1500m
200 à 500 ft
< 800m
< 200 ft
Symboles :   Orages  Brouillard  Fortes neiges  Fortes précipitations  Vent > 20 kt
SIGMETs :   Divers  Orages  Givrage  Turbulence  Onde Orograph.  Cendres Volcan.






- Altitude de l'aérodrome : 327 ft
- Code IATA : BHX


EGBB - Birmingham

DERNIER METAR :
  • 281220Z 03015KT 9999 BKN036 09/01 Q1032

METARs EXPIRÉS :
  • 281150Z 03015KT 9999 BKN038 08/02 Q1032
  • 281120Z 04016KT 9999 BKN025 08/02 Q1032
  • 281050Z 05014KT 9999 BKN034 08/02 Q1032
  • 281020Z 02016KT 9999 BKN028 08/02 Q1031
  • 280950Z 03018KT 9999 BKN023 08/02 Q1031

TAF TAF EGBB
Valide du 28 à 12h jusqu'au 29 à 12h UTC


281104Z 2812/2912 03015G28KT 9999 SCT025
PROB30
TEMPO 2814/2824 6000 SHRA
BECMG 2821/2824 03012KT
PROB30
TEMPO 2900/2910 04015G25KT 4000 SHRASN
TEMPO 2910/2912 03018G28KT
PROB30
TEMPO 2910/2912 6000 SHRA
ATIS : +44 121 780 0910



MET'MAP, la Météo Aéronautique d'un coup d'oeil ! - Copyright ORBIFLY Décembre 2007 - Disclaimer

ORBIFLY MET'MAP TEAM :

Programmation & Développement : Alexandra Zaïnal
Sur une idée originale de : Baudouin d'Aumeries
Assistance à la programmation : Marc-Olivier Méhu
Soutien technique & logistique : Manuel Goepfert

Contact : metmap@orbifly.com




SOURCES & CREDITS :

   NOAA